sensor_id;sensor_type;location;lat;lon;timestamp;temperature;humidity
68766;DHT22;55756;45.582;11.484;2023-03-04T00:01:17;11.40;55.00
68766;DHT22;55756;45.582;11.484;2023-03-04T00:03:43;11.30;54.90
68766;DHT22;55756;45.582;11.484;2023-03-04T00:06:09;11.30;55.00
68766;DHT22;55756;45.582;11.484;2023-03-04T00:08:35;11.20;54.90
68766;DHT22;55756;45.582;11.484;2023-03-04T00:11:00;11.10;55.20
68766;DHT22;55756;45.582;11.484;2023-03-04T00:13:26;11.00;55.30
68766;DHT22;55756;45.582;11.484;2023-03-04T00:15:52;11.00;55.20
68766;DHT22;55756;45.582;11.484;2023-03-04T00:18:18;11.00;55.40
68766;DHT22;55756;45.582;11.484;2023-03-04T00:20:46;11.10;55.20
68766;DHT22;55756;45.582;11.484;2023-03-04T00:23:12;11.00;55.10
68766;DHT22;55756;45.582;11.484;2023-03-04T00:25:37;11.00;55.30
68766;DHT22;55756;45.582;11.484;2023-03-04T00:28:03;11.00;55.40
68766;DHT22;55756;45.582;11.484;2023-03-04T00:30:30;11.00;55.20
68766;DHT22;55756;45.582;11.484;2023-03-04T00:32:56;11.00;55.30
68766;DHT22;55756;45.582;11.484;2023-03-04T00:35:22;11.00;55.70
68766;DHT22;55756;45.582;11.484;2023-03-04T00:37:48;11.00;55.90
68766;DHT22;55756;45.582;11.484;2023-03-04T00:40:15;11.00;55.90
68766;DHT22;55756;45.582;11.484;2023-03-04T00:42:41;11.00;55.90
68766;DHT22;55756;45.582;11.484;2023-03-04T00:45:08;11.00;55.80
68766;DHT22;55756;45.582;11.484;2023-03-04T00:47:34;11.00;55.90
68766;DHT22;55756;45.582;11.484;2023-03-04T00:50:00;11.00;55.60
68766;DHT22;55756;45.582;11.484;2023-03-04T00:52:26;11.10;55.50
68766;DHT22;55756;45.582;11.484;2023-03-04T00:54:51;11.00;55.40
68766;DHT22;55756;45.582;11.484;2023-03-04T00:57:20;11.00;55.40
68766;DHT22;55756;45.582;11.484;2023-03-04T00:59:46;11.10;55.30
68766;DHT22;55756;45.582;11.484;2023-03-04T01:02:14;11.00;55.20
68766;DHT22;55756;45.582;11.484;2023-03-04T01:04:40;11.00;55.30
68766;DHT22;55756;45.582;11.484;2023-03-04T01:07:06;11.00;55.50
68766;DHT22;55756;45.582;11.484;2023-03-04T01:09:32;10.90;55.60
68766;DHT22;55756;45.582;11.484;2023-03-04T01:11:58;10.90;55.70
68766;DHT22;55756;45.582;11.484;2023-03-04T01:14:24;10.90;55.70
68766;DHT22;55756;45.582;11.484;2023-03-04T01:16:50;10.90;55.90
68766;DHT22;55756;45.582;11.484;2023-03-04T01:19:16;10.90;56.00
68766;DHT22;55756;45.582;11.484;2023-03-04T01:21:41;10.90;56.00
68766;DHT22;55756;45.582;11.484;2023-03-04T01:24:07;10.90;56.10
68766;DHT22;55756;45.582;11.484;2023-03-04T01:26:33;10.90;56.00
68766;DHT22;55756;45.582;11.484;2023-03-04T01:28:59;10.90;55.90
68766;DHT22;55756;45.582;11.484;2023-03-04T01:31:25;10.90;55.80
68766;DHT22;55756;45.582;11.484;2023-03-04T01:33:51;10.90;55.90
68766;DHT22;55756;45.582;11.484;2023-03-04T01:36:17;10.90;55.70
68766;DHT22;55756;45.582;11.484;2023-03-04T01:38:42;10.90;55.60
68766;DHT22;55756;45.582;11.484;2023-03-04T01:41:09;11.00;55.50
68766;DHT22;55756;45.582;11.484;2023-03-04T01:43:36;11.00;55.40
68766;DHT22;55756;45.582;11.484;2023-03-04T01:46:03;11.00;55.30
68766;DHT22;55756;45.582;11.484;2023-03-04T01:48:36;11.00;55.20
68766;DHT22;55756;45.582;11.484;2023-03-04T01:51:11;11.00;55.00
68766;DHT22;55756;45.582;11.484;2023-03-04T01:53:37;11.10;55.00
68766;DHT22;55756;45.582;11.484;2023-03-04T01:56:13;11.10;54.90
68766;DHT22;55756;45.582;11.484;2023-03-04T01:58:39;11.10;54.90
68766;DHT22;55756;45.582;11.484;2023-03-04T02:01:05;11.10;54.80
68766;DHT22;55756;45.582;11.484;2023-03-04T02:03:31;11.10;54.90
68766;DHT22;55756;45.582;11.484;2023-03-04T02:05:57;11.10;54.80
68766;DHT22;55756;45.582;11.484;2023-03-04T02:08:24;11.10;54.70
68766;DHT22;55756;45.582;11.484;2023-03-04T02:10:50;11.10;54.70
68766;DHT22;55756;45.582;11.484;2023-03-04T02:13:17;11.10;54.80
68766;DHT22;55756;45.582;11.484;2023-03-04T02:15:47;11.10;54.60
68766;DHT22;55756;45.582;11.484;2023-03-04T02:18:18;11.10;54.80
68766;DHT22;55756;45.582;11.484;2023-03-04T02:23:59;11.00;54.80
68766;DHT22;55756;45.582;11.484;2023-03-04T02:26:28;11.00;54.90
68766;DHT22;55756;45.582;11.484;2023-03-04T02:28:57;11.00;54.90
68766;DHT22;55756;45.582;11.484;2023-03-04T02:31:35;11.00;55.00
68766;DHT22;55756;45.582;11.484;2023-03-04T02:34:22;10.90;54.70
68766;DHT22;55756;45.582;11.484;2023-03-04T02:36:51;10.80;54.90
68766;DHT22;55756;45.582;11.484;2023-03-04T02:41:47;10.70;55.20
68766;DHT22;55756;45.582;11.484;2023-03-04T02:44:17;10.70;55.40
68766;DHT22;55756;45.582;11.484;2023-03-04T02:46:43;10.70;55.90
68766;DHT22;55756;45.582;11.484;2023-03-04T02:49:09;10.70;55.90
68766;DHT22;55756;45.582;11.484;2023-03-04T02:51:38;10.60;55.90
68766;DHT22;55756;45.582;11.484;2023-03-04T02:54:04;10.60;56.20
68766;DHT22;55756;45.582;11.484;2023-03-04T02:56:30;10.60;56.40
68766;DHT22;55756;45.582;11.484;2023-03-04T02:58:56;10.60;56.60
68766;DHT22;55756;45.582;11.484;2023-03-04T03:01:21;10.60;56.50
68766;DHT22;55756;45.582;11.484;2023-03-04T03:03:50;10.60;56.50
68766;DHT22;55756;45.582;11.484;2023-03-04T03:06:16;10.60;56.50
68766;DHT22;55756;45.582;11.484;2023-03-04T03:08:42;10.60;56.40
68766;DHT22;55756;45.582;11.484;2023-03-04T03:11:07;10.60;56.40
68766;DHT22;55756;45.582;11.484;2023-03-04T03:13:34;10.60;56.50
68766;DHT22;55756;45.582;11.484;2023-03-04T03:15:59;10.60;56.60
68766;DHT22;55756;45.582;11.484;2023-03-04T03:18:25;10.60;56.80
68766;DHT22;55756;45.582;11.484;2023-03-04T03:20:51;10.60;56.90
68766;DHT22;55756;45.582;11.484;2023-03-04T03:23:16;10.60;57.00
68766;DHT22;55756;45.582;11.484;2023-03-04T03:25:42;10.60;56.70
68766;DHT22;55756;45.582;11.484;2023-03-04T03:28:08;10.60;56.80
68766;DHT22;55756;45.582;11.484;2023-03-04T03:30:35;10.60;57.00
68766;DHT22;55756;45.582;11.484;2023-03-04T03:33:04;10.60;57.10
68766;DHT22;55756;45.582;11.484;2023-03-04T03:35:30;10.60;57.10
68766;DHT22;55756;45.582;11.484;2023-03-04T03:37:55;10.50;57.10
68766;DHT22;55756;45.582;11.484;2023-03-04T03:40:21;10.60;56.90
68766;DHT22;55756;45.582;11.484;2023-03-04T03:42:47;10.60;56.90
68766;DHT22;55756;45.582;11.484;2023-03-04T03:45:13;10.60;56.90
68766;DHT22;55756;45.582;11.484;2023-03-04T03:47:38;10.50;56.90
68766;DHT22;55756;45.582;11.484;2023-03-04T03:50:04;10.50;56.90
68766;DHT22;55756;45.582;11.484;2023-03-04T03:52:30;10.50;57.00
68766;DHT22;55756;45.582;11.484;2023-03-04T03:54:56;10.50;56.90
68766;DHT22;55756;45.582;11.484;2023-03-04T03:57:22;10.50;56.80
68766;DHT22;55756;45.582;11.484;2023-03-04T03:59:48;10.40;56.90
68766;DHT22;55756;45.582;11.484;2023-03-04T04:02:14;10.40;57.10
68766;DHT22;55756;45.582;11.484;2023-03-04T04:04:39;10.40;56.80
68766;DHT22;55756;45.582;11.484;2023-03-04T04:07:05;10.40;56.60
68766;DHT22;55756;45.582;11.484;2023-03-04T04:09:31;10.30;56.50
68766;DHT22;55756;45.582;11.484;2023-03-04T04:11:56;10.30;56.70
68766;DHT22;55756;45.582;11.484;2023-03-04T04:14:22;10.20;56.80
68766;DHT22;55756;45.582;11.484;2023-03-04T04:16:48;10.20;56.80
68766;DHT22;55756;45.582;11.484;2023-03-04T04:19:19;10.20;57.10
68766;DHT22;55756;45.582;11.484;2023-03-04T04:21:45;10.20;57.30
68766;DHT22;55756;45.582;11.484;2023-03-04T04:24:11;10.20;57.30
68766;DHT22;55756;45.582;11.484;2023-03-04T04:26:37;10.20;57.40
68766;DHT22;55756;45.582;11.484;2023-03-04T04:29:02;10.20;57.80
68766;DHT22;55756;45.582;11.484;2023-03-04T04:31:28;10.30;58.00
68766;DHT22;55756;45.582;11.484;2023-03-04T04:33:54;10.30;57.70
68766;DHT22;55756;45.582;11.484;2023-03-04T04:36:20;10.30;57.70
68766;DHT22;55756;45.582;11.484;2023-03-04T04:38:45;10.30;57.70
68766;DHT22;55756;45.582;11.484;2023-03-04T04:41:22;10.30;57.60
68766;DHT22;55756;45.582;11.484;2023-03-04T04:43:49;10.30;57.90
68766;DHT22;55756;45.582;11.484;2023-03-04T04:46:15;10.30;57.70
68766;DHT22;55756;45.582;11.484;2023-03-04T04:48:41;10.30;57.40
68766;DHT22;55756;45.582;11.484;2023-03-04T04:51:07;10.30;57.70
68766;DHT22;55756;45.582;11.484;2023-03-04T04:53:33;10.30;57.60
68766;DHT22;55756;45.582;11.484;2023-03-04T04:55:59;10.30;57.40
68766;DHT22;55756;45.582;11.484;2023-03-04T04:58:25;10.30;57.50
68766;DHT22;55756;45.582;11.484;2023-03-04T05:00:51;10.30;57.60
68766;DHT22;55756;45.582;11.484;2023-03-04T05:03:17;10.30;57.30
68766;DHT22;55756;45.582;11.484;2023-03-04T05:05:42;10.30;57.10
68766;DHT22;55756;45.582;11.484;2023-03-04T05:08:08;10.30;57.00
68766;DHT22;55756;45.582;11.484;2023-03-04T05:10:34;10.20;57.00
68766;DHT22;55756;45.582;11.484;2023-03-04T05:12:59;10.20;56.80
68766;DHT22;55756;45.582;11.484;2023-03-04T05:15:25;10.10;56.60
68766;DHT22;55756;45.582;11.484;2023-03-04T05:17:51;10.00;56.90
68766;DHT22;55756;45.582;11.484;2023-03-04T05:20:17;10.00;57.20
68766;DHT22;55756;45.582;11.484;2023-03-04T05:22:42;10.10;57.20
68766;DHT22;55756;45.582;11.484;2023-03-04T05:25:11;10.00;57.40
68766;DHT22;55756;45.582;11.484;2023-03-04T05:27:37;10.00;57.80
68766;DHT22;55756;45.582;11.484;2023-03-04T05:30:03;10.10;57.70
68766;DHT22;55756;45.582;11.484;2023-03-04T05:32:32;10.10;57.30
68766;DHT22;55756;45.582;11.484;2023-03-04T05:34:57;10.00;57.20
68766;DHT22;55756;45.582;11.484;2023-03-04T05:37:23;10.00;57.50
68766;DHT22;55756;45.582;11.484;2023-03-04T05:39:49;10.00;57.70
68766;DHT22;55756;45.582;11.484;2023-03-04T05:42:14;10.10;57.60
68766;DHT22;55756;45.582;11.484;2023-03-04T05:44:40;10.10;57.30
68766;DHT22;55756;45.582;11.484;2023-03-04T05:47:06;10.20;56.80
68766;DHT22;55756;45.582;11.484;2023-03-04T05:49:31;10.20;56.70
68766;DHT22;55756;45.582;11.484;2023-03-04T05:51:57;10.10;56.50
68766;DHT22;55756;45.582;11.484;2023-03-04T05:54:23;10.10;56.60
68766;DHT22;55756;45.582;11.484;2023-03-04T05:56:48;10.10;56.70
68766;DHT22;55756;45.582;11.484;2023-03-04T05:59:14;10.10;56.70
68766;DHT22;55756;45.582;11.484;2023-03-04T06:01:45;10.00;56.60
68766;DHT22;55756;45.582;11.484;2023-03-04T06:04:11;10.00;56.80
68766;DHT22;55756;45.582;11.484;2023-03-04T06:06:37;10.00;56.40
68766;DHT22;55756;45.582;11.484;2023-03-04T06:09:03;9.90;56.50
68766;DHT22;55756;45.582;11.484;2023-03-04T06:11:29;9.90;56.80
68766;DHT22;55756;45.582;11.484;2023-03-04T06:13:55;9.90;56.80
68766;DHT22;55756;45.582;11.484;2023-03-04T06:16:20;9.80;57.20
68766;DHT22;55756;45.582;11.484;2023-03-04T06:18:46;9.80;57.30
68766;DHT22;55756;45.582;11.484;2023-03-04T06:21:12;9.70;57.90
68766;DHT22;55756;45.582;11.484;2023-03-04T06:23:37;9.80;57.90
68766;DHT22;55756;45.582;11.484;2023-03-04T06:26:03;9.80;57.90
68766;DHT22;55756;45.582;11.484;2023-03-04T06:28:30;9.80;58.30
68766;DHT22;55756;45.582;11.484;2023-03-04T06:30:56;9.80;58.50
68766;DHT22;55756;45.582;11.484;2023-03-04T06:33:22;9.80;58.60
68766;DHT22;55756;45.582;11.484;2023-03-04T06:35:53;9.80;58.60
68766;DHT22;55756;45.582;11.484;2023-03-04T06:38:19;9.80;58.80
68766;DHT22;55756;45.582;11.484;2023-03-04T06:40:48;9.90;58.70
68766;DHT22;55756;45.582;11.484;2023-03-04T06:43:14;9.80;58.60
68766;DHT22;55756;45.582;11.484;2023-03-04T06:45:40;9.90;58.50
68766;DHT22;55756;45.582;11.484;2023-03-04T06:48:05;9.90;58.50
68766;DHT22;55756;45.582;11.484;2023-03-04T06:50:31;9.90;58.80
68766;DHT22;55756;45.582;11.484;2023-03-04T06:52:57;9.90;58.80
68766;DHT22;55756;45.582;11.484;2023-03-04T06:55:23;10.00;58.80
68766;DHT22;55756;45.582;11.484;2023-03-04T06:57:49;10.00;58.90
68766;DHT22;55756;45.582;11.484;2023-03-04T07:00:15;10.10;58.90
68766;DHT22;55756;45.582;11.484;2023-03-04T07:02:41;10.20;58.90
68766;DHT22;55756;45.582;11.484;2023-03-04T07:05:08;10.20;59.20
68766;DHT22;55756;45.582;11.484;2023-03-04T07:07:34;10.30;58.80
68766;DHT22;55756;45.582;11.484;2023-03-04T07:09:59;10.30;58.80
68766;DHT22;55756;45.582;11.484;2023-03-04T07:12:25;10.40;58.90
68766;DHT22;55756;45.582;11.484;2023-03-04T07:14:51;10.40;58.60
68766;DHT22;55756;45.582;11.484;2023-03-04T07:17:16;10.50;58.20
68766;DHT22;55756;45.582;11.484;2023-03-04T07:19:42;10.60;57.80
68766;DHT22;55756;45.582;11.484;2023-03-04T07:22:09;10.60;57.70
68766;DHT22;55756;45.582;11.484;2023-03-04T07:24:35;10.70;57.80
68766;DHT22;55756;45.582;11.484;2023-03-04T07:27:00;10.70;57.80
68766;DHT22;55756;45.582;11.484;2023-03-04T07:29:26;10.80;57.70
68766;DHT22;55756;45.582;11.484;2023-03-04T07:31:52;10.80;57.60
68766;DHT22;55756;45.582;11.484;2023-03-04T07:34:18;10.90;57.50
68766;DHT22;55756;45.582;11.484;2023-03-04T07:36:44;10.90;57.60
68766;DHT22;55756;45.582;11.484;2023-03-04T07:39:10;11.00;57.70
68766;DHT22;55756;45.582;11.484;2023-03-04T07:41:37;11.00;58.80
68766;DHT22;55756;45.582;11.484;2023-03-04T07:44:05;11.10;59.40
68766;DHT22;55756;45.582;11.484;2023-03-04T07:46:31;11.20;59.60
68766;DHT22;55756;45.582;11.484;2023-03-04T07:48:57;11.20;59.70
68766;DHT22;55756;45.582;11.484;2023-03-04T07:51:25;11.20;59.60
68766;DHT22;55756;45.582;11.484;2023-03-04T07:53:53;11.20;59.50
68766;DHT22;55756;45.582;11.484;2023-03-04T07:56:22;11.30;59.50
68766;DHT22;55756;45.582;11.484;2023-03-04T07:58:48;11.30;59.90
68766;DHT22;55756;45.582;11.484;2023-03-04T08:01:17;11.30;60.30
68766;DHT22;55756;45.582;11.484;2023-03-04T08:03:43;11.40;60.00
68766;DHT22;55756;45.582;11.484;2023-03-04T08:06:12;11.50;59.60
68766;DHT22;55756;45.582;11.484;2023-03-04T08:08:38;11.50;59.50
68766;DHT22;55756;45.582;11.484;2023-03-04T08:11:05;11.50;59.60
68766;DHT22;55756;45.582;11.484;2023-03-04T08:13:32;11.60;59.50
68766;DHT22;55756;45.582;11.484;2023-03-04T08:15:58;11.60;59.20
68766;DHT22;55756;45.582;11.484;2023-03-04T08:18:24;11.60;59.00
68766;DHT22;55756;45.582;11.484;2023-03-04T08:20:49;11.70;59.10
68766;DHT22;55756;45.582;11.484;2023-03-04T08:23:15;11.70;58.90
68766;DHT22;55756;45.582;11.484;2023-03-04T08:25:41;11.80;58.50
68766;DHT22;55756;45.582;11.484;2023-03-04T08:28:08;11.90;58.70
68766;DHT22;55756;45.582;11.484;2023-03-04T08:30:35;11.90;57.90
68766;DHT22;55756;45.582;11.484;2023-03-04T08:33:02;12.00;57.60
68766;DHT22;55756;45.582;11.484;2023-03-04T08:35:29;12.00;57.90
68766;DHT22;55756;45.582;11.484;2023-03-04T08:37:56;12.10;57.60
68766;DHT22;55756;45.582;11.484;2023-03-04T08:40:22;12.20;57.80
68766;DHT22;55756;45.582;11.484;2023-03-04T08:42:49;12.30;58.10
68766;DHT22;55756;45.582;11.484;2023-03-04T08:45:15;12.30;58.40
68766;DHT22;55756;45.582;11.484;2023-03-04T08:47:40;12.40;58.00
68766;DHT22;55756;45.582;11.484;2023-03-04T08:50:07;12.50;57.60
68766;DHT22;55756;45.582;11.484;2023-03-04T08:52:35;12.50;57.60
68766;DHT22;55756;45.582;11.484;2023-03-04T08:55:01;12.50;58.00
68766;DHT22;55756;45.582;11.484;2023-03-04T08:57:27;12.60;58.00
68766;DHT22;55756;45.582;11.484;2023-03-04T08:59:53;12.70;58.00
68766;DHT22;55756;45.582;11.484;2023-03-04T09:02:19;12.70;57.90
68766;DHT22;55756;45.582;11.484;2023-03-04T09:04:45;12.80;57.50
68766;DHT22;55756;45.582;11.484;2023-03-04T09:07:10;12.80;57.60
68766;DHT22;55756;45.582;11.484;2023-03-04T09:09:36;12.90;57.40
68766;DHT22;55756;45.582;11.484;2023-03-04T09:12:02;13.00;57.50
68766;DHT22;55756;45.582;11.484;2023-03-04T09:14:28;13.10;57.50
68766;DHT22;55756;45.582;11.484;2023-03-04T09:16:54;13.00;57.40
68766;DHT22;55756;45.582;11.484;2023-03-04T09:19:20;13.10;57.60
68766;DHT22;55756;45.582;11.484;2023-03-04T09:21:45;13.20;57.30
68766;DHT22;55756;45.582;11.484;2023-03-04T09:24:11;13.30;57.20
68766;DHT22;55756;45.582;11.484;2023-03-04T09:26:37;13.30;56.80
68766;DHT22;55756;45.582;11.484;2023-03-04T09:29:03;13.40;55.60
68766;DHT22;55756;45.582;11.484;2023-03-04T09:31:32;13.40;55.00
68766;DHT22;55756;45.582;11.484;2023-03-04T09:33:59;13.40;53.50
68766;DHT22;55756;45.582;11.484;2023-03-04T09:36:25;13.50;53.60
68766;DHT22;55756;45.582;11.484;2023-03-04T09:39:01;13.50;53.30
68766;DHT22;55756;45.582;11.484;2023-03-04T09:41:36;13.60;51.60
68766;DHT22;55756;45.582;11.484;2023-03-04T09:44:25;13.60;50.30
68766;DHT22;55756;45.582;11.484;2023-03-04T09:46:54;13.70;49.30
68766;DHT22;55756;45.582;11.484;2023-03-04T09:49:23;13.80;49.00
68766;DHT22;55756;45.582;11.484;2023-03-04T09:52:09;13.80;48.80
68766;DHT22;55756;45.582;11.484;2023-03-04T09:54:49;13.90;48.70
68766;DHT22;55756;45.582;11.484;2023-03-04T09:57:45;13.90;48.60
68766;DHT22;55756;45.582;11.484;2023-03-04T10:00:16;14.00;48.10
68766;DHT22;55756;45.582;11.484;2023-03-04T10:03:03;14.10;48.10
68766;DHT22;55756;45.582;11.484;2023-03-04T10:05:31;14.10;48.00
68766;DHT22;55756;45.582;11.484;2023-03-04T10:10:48;14.30;47.20
68766;DHT22;55756;45.582;11.484;2023-03-04T10:13:18;14.30;47.10
68766;DHT22;55756;45.582;11.484;2023-03-04T10:15:50;14.40;47.10
68766;DHT22;55756;45.582;11.484;2023-03-04T10:18:20;14.40;46.90
68766;DHT22;55756;45.582;11.484;2023-03-04T10:23:23;14.60;46.40
68766;DHT22;55756;45.582;11.484;2023-03-04T10:25:51;14.60;46.40
68766;DHT22;55756;45.582;11.484;2023-03-04T10:28:29;14.60;46.00
68766;DHT22;55756;45.582;11.484;2023-03-04T10:31:04;14.70;45.60
68766;DHT22;55756;45.582;11.484;2023-03-04T10:33:34;14.70;44.90
68766;DHT22;55756;45.582;11.484;2023-03-04T10:41:29;14.90;44.60
68766;DHT22;55756;45.582;11.484;2023-03-04T10:44:15;15.00;44.70
68766;DHT22;55756;45.582;11.484;2023-03-04T10:46:48;15.00;44.30
68766;DHT22;55756;45.582;11.484;2023-03-04T10:49:17;15.00;44.50
68766;DHT22;55756;45.582;11.484;2023-03-04T10:51:51;15.10;44.50
68766;DHT22;55756;45.582;11.484;2023-03-04T10:54:40;15.10;44.20
68766;DHT22;55756;45.582;11.484;2023-03-04T10:57:18;15.10;44.40
68766;DHT22;55756;45.582;11.484;2023-03-04T11:02:27;15.20;44.30
68766;DHT22;55756;45.582;11.484;2023-03-04T11:04:56;15.20;44.80
68766;DHT22;55756;45.582;11.484;2023-03-04T11:07:23;15.30;44.60
68766;DHT22;55756;45.582;11.484;2023-03-04T11:09:49;15.30;44.30
68766;DHT22;55756;45.582;11.484;2023-03-04T11:12:18;15.30;44.20
68766;DHT22;55756;45.582;11.484;2023-03-04T11:14:47;15.40;43.90
68766;DHT22;55756;45.582;11.484;2023-03-04T11:17:26;15.40;44.30
68766;DHT22;55756;45.582;11.484;2023-03-04T11:20:02;15.40;44.10
68766;DHT22;55756;45.582;11.484;2023-03-04T11:22:30;15.40;43.80
68766;DHT22;55756;45.582;11.484;2023-03-04T11:25:07;15.40;44.10
68766;DHT22;55756;45.582;11.484;2023-03-04T11:27:47;15.50;44.20
68766;DHT22;55756;45.582;11.484;2023-03-04T11:30:32;15.50;44.10
68766;DHT22;55756;45.582;11.484;2023-03-04T11:33:16;15.60;43.40
68766;DHT22;55756;45.582;11.484;2023-03-04T11:38:38;15.60;43.60
68766;DHT22;55756;45.582;11.484;2023-03-04T11:43:45;15.70;43.80
68766;DHT22;55756;45.582;11.484;2023-03-04T11:51:50;15.70;44.10
68766;DHT22;55756;45.582;11.484;2023-03-04T12:02:19;15.80;43.60
68766;DHT22;55756;45.582;11.484;2023-03-04T12:07:53;15.90;43.40
68766;DHT22;55756;45.582;11.484;2023-03-04T12:10:40;15.90;43.60
68766;DHT22;55756;45.582;11.484;2023-03-04T12:21:56;16.00;42.80
68766;DHT22;55756;45.582;11.484;2023-03-04T12:35:44;16.10;42.60
68766;DHT22;55756;45.582;11.484;2023-03-04T12:44:08;16.20;42.80
68766;DHT22;55756;45.582;11.484;2023-03-04T12:52:46;16.20;42.80
68766;DHT22;55756;45.582;11.484;2023-03-04T12:55:14;16.30;43.10
68766;DHT22;55756;45.582;11.484;2023-03-04T12:57:44;16.30;42.80
68766;DHT22;55756;45.582;11.484;2023-03-04T13:00:21;16.30;42.50
68766;DHT22;55756;45.582;11.484;2023-03-04T13:08:50;16.40;42.40
68766;DHT22;55756;45.582;11.484;2023-03-04T13:14:04;16.50;42.50
68766;DHT22;55756;45.582;11.484;2023-03-04T13:16:40;16.50;42.40
68766;DHT22;55756;45.582;11.484;2023-03-04T13:25:26;16.50;41.00
68766;DHT22;55756;45.582;11.484;2023-03-04T13:43:52;16.50;42.40
68766;DHT22;55756;45.582;11.484;2023-03-04T13:51:41;16.60;42.80
68766;DHT22;55756;45.582;11.484;2023-03-04T13:54:13;16.60;42.60
68766;DHT22;55756;45.582;11.484;2023-03-04T13:59:43;16.70;42.40
68766;DHT22;55756;45.582;11.484;2023-03-04T14:04:41;16.70;42.60
68766;DHT22;55756;45.582;11.484;2023-03-04T14:10:04;16.70;43.40
68766;DHT22;55756;45.582;11.484;2023-03-04T14:12:34;16.70;43.20
68766;DHT22;55756;45.582;11.484;2023-03-04T14:15:05;16.80;43.60
68766;DHT22;55756;45.582;11.484;2023-03-04T14:17:34;16.80;43.60
68766;DHT22;55756;45.582;11.484;2023-03-04T14:20:02;16.80;43.90
68766;DHT22;55756;45.582;11.484;2023-03-04T14:22:38;16.80;44.00
68766;DHT22;55756;45.582;11.484;2023-03-04T14:25:23;16.80;44.10
68766;DHT22;55756;45.582;11.484;2023-03-04T14:28:00;16.80;44.60
68766;DHT22;55756;45.582;11.484;2023-03-04T14:30:30;16.80;44.80
68766;DHT22;55756;45.582;11.484;2023-03-04T14:32:57;16.80;44.80
68766;DHT22;55756;45.582;11.484;2023-03-04T14:35:28;16.80;44.90
68766;DHT22;55756;45.582;11.484;2023-03-04T14:40:31;16.80;45.10
68766;DHT22;55756;45.582;11.484;2023-03-04T14:43:28;16.80;45.00
68766;DHT22;55756;45.582;11.484;2023-03-04T14:45:56;16.80;45.00
68766;DHT22;55756;45.582;11.484;2023-03-04T14:48:33;16.80;45.20
68766;DHT22;55756;45.582;11.484;2023-03-04T14:51:01;16.90;45.00
68766;DHT22;55756;45.582;11.484;2023-03-04T14:53:29;16.80;45.20
68766;DHT22;55756;45.582;11.484;2023-03-04T14:56:02;16.90;45.30
68766;DHT22;55756;45.582;11.484;2023-03-04T14:58:36;16.80;45.80
68766;DHT22;55756;45.582;11.484;2023-03-04T15:04:05;16.90;45.90
68766;DHT22;55756;45.582;11.484;2023-03-04T15:06:33;16.90;46.00
68766;DHT22;55756;45.582;11.484;2023-03-04T15:09:03;16.90;46.00
68766;DHT22;55756;45.582;11.484;2023-03-04T15:11:50;17.00;46.20
68766;DHT22;55756;45.582;11.484;2023-03-04T15:17:27;16.90;46.20
68766;DHT22;55756;45.582;11.484;2023-03-04T15:22:32;16.90;45.70
68766;DHT22;55756;45.582;11.484;2023-03-04T15:24:58;16.90;45.90
68766;DHT22;55756;45.582;11.484;2023-03-04T15:27:26;16.90;46.00
68766;DHT22;55756;45.582;11.484;2023-03-04T15:29:53;16.80;45.80
68766;DHT22;55756;45.582;11.484;2023-03-04T15:32:22;16.80;45.80
68766;DHT22;55756;45.582;11.484;2023-03-04T15:34:50;16.80;46.20
68766;DHT22;55756;45.582;11.484;2023-03-04T15:37:34;16.80;46.40
68766;DHT22;55756;45.582;11.484;2023-03-04T15:40:00;16.80;46.70
68766;DHT22;55756;45.582;11.484;2023-03-04T15:42:27;16.80;46.10
68766;DHT22;55756;45.582;11.484;2023-03-04T15:44:53;16.80;46.30
68766;DHT22;55756;45.582;11.484;2023-03-04T15:47:19;16.80;46.40
68766;DHT22;55756;45.582;11.484;2023-03-04T15:49:44;16.80;46.30
68766;DHT22;55756;45.582;11.484;2023-03-04T15:52:19;16.80;45.90
68766;DHT22;55756;45.582;11.484;2023-03-04T15:54:47;16.70;45.70
68766;DHT22;55756;45.582;11.484;2023-03-04T15:57:22;16.80;46.10
68766;DHT22;55756;45.582;11.484;2023-03-04T15:59:49;16.80;46.30
68766;DHT22;55756;45.582;11.484;2023-03-04T16:02:23;16.70;46.50
68766;DHT22;55756;45.582;11.484;2023-03-04T16:04:49;16.70;46.50
68766;DHT22;55756;45.582;11.484;2023-03-04T16:07:17;16.70;46.40
68766;DHT22;55756;45.582;11.484;2023-03-04T16:09:45;16.70;46.00
68766;DHT22;55756;45.582;11.484;2023-03-04T16:12:12;16.70;46.00
68766;DHT22;55756;45.582;11.484;2023-03-04T16:14:44;16.70;45.70
68766;DHT22;55756;45.582;11.484;2023-03-04T16:17:11;16.70;45.70
68766;DHT22;55756;45.582;11.484;2023-03-04T16:19:40;16.60;45.90
68766;DHT22;55756;45.582;11.484;2023-03-04T16:22:08;16.60;46.10
68766;DHT22;55756;45.582;11.484;2023-03-04T16:24:37;16.60;46.50
68766;DHT22;55756;45.582;11.484;2023-03-04T16:27:14;16.50;46.60
68766;DHT22;55756;45.582;11.484;2023-03-04T16:29:43;16.50;46.80
68766;DHT22;55756;45.582;11.484;2023-03-04T16:32:09;16.40;46.80
68766;DHT22;55756;45.582;11.484;2023-03-04T16:34:36;16.40;46.80
68766;DHT22;55756;45.582;11.484;2023-03-04T16:37:06;16.40;46.50
68766;DHT22;55756;45.582;11.484;2023-03-04T16:39:32;16.40;46.50
68766;DHT22;55756;45.582;11.484;2023-03-04T16:41:58;16.40;46.50
68766;DHT22;55756;45.582;11.484;2023-03-04T16:44:24;16.30;46.40
68766;DHT22;55756;45.582;11.484;2023-03-04T16:46:50;16.30;46.50
68766;DHT22;55756;45.582;11.484;2023-03-04T16:49:15;16.20;46.60
68766;DHT22;55756;45.582;11.484;2023-03-04T16:51:45;16.20;46.70
68766;DHT22;55756;45.582;11.484;2023-03-04T16:54:16;16.10;46.70
68766;DHT22;55756;45.582;11.484;2023-03-04T16:56:42;16.10;46.70
68766;DHT22;55756;45.582;11.484;2023-03-04T16:59:14;16.10;46.70
68766;DHT22;55756;45.582;11.484;2023-03-04T17:01:40;16.00;46.60
68766;DHT22;55756;45.582;11.484;2023-03-04T17:04:06;16.00;46.60
68766;DHT22;55756;45.582;11.484;2023-03-04T17:06:32;16.00;46.70
68766;DHT22;55756;45.582;11.484;2023-03-04T17:09:00;15.90;46.70
68766;DHT22;55756;45.582;11.484;2023-03-04T17:11:26;15.90;46.70
68766;DHT22;55756;45.582;11.484;2023-03-04T17:13:52;15.90;46.70
68766;DHT22;55756;45.582;11.484;2023-03-04T17:16:18;15.90;46.70
68766;DHT22;55756;45.582;11.484;2023-03-04T17:18:44;15.80;46.80
68766;DHT22;55756;45.582;11.484;2023-03-04T17:21:13;15.80;47.00
68766;DHT22;55756;45.582;11.484;2023-03-04T17:23:39;15.80;47.10
68766;DHT22;55756;45.582;11.484;2023-03-04T17:26:05;15.80;47.30
68766;DHT22;55756;45.582;11.484;2023-03-04T17:28:31;15.70;47.40
68766;DHT22;55756;45.582;11.484;2023-03-04T17:31:14;15.70;47.40
68766;DHT22;55756;45.582;11.484;2023-03-04T17:33:41;15.70;47.50